sensor_id;sensor_type;location;lat;lon;timestamp;P1;durP1;ratioP1;P2;durP2;ratioP2
77736;SDS011;66903;59.926;30.404;2023-01-16T10:14:55;2.72;;;0.70;;
77736;SDS011;66903;59.926;30.404;2023-01-16T10:30:25;1.65;;;0.70;;
77736;SDS011;66903;59.926;30.404;2023-01-16T10:35:29;1.90;;;0.63;;
77736;SDS011;66903;59.926;30.404;2023-01-16T10:40:34;1.90;;;0.70;;
77736;SDS011;66903;59.926;30.404;2023-01-16T10:45:36;1.85;;;0.80;;
77736;SDS011;66903;59.926;30.404;2023-01-16T10:50:55;2.25;;;0.77;;
77736;SDS011;66903;59.926;30.404;2023-01-16T10:55:56;2.80;;;0.80;;
77736;SDS011;66903;59.926;30.404;2023-01-16T11:06:18;1.88;;;0.65;;
77736;SDS011;66903;59.926;30.404;2023-01-16T11:11:23;1.92;;;0.73;;
77736;SDS011;66903;59.926;30.404;2023-01-16T11:16:42;2.15;;;0.85;;
77736;SDS011;66903;59.926;30.404;2023-01-16T11:22:01;2.65;;;0.70;;
77736;SDS011;66903;59.926;30.404;2023-01-16T11:27:08;1.45;;;0.60;;
77736;SDS011;66903;59.926;30.404;2023-01-16T11:32:16;2.15;;;0.73;;
77736;SDS011;66903;59.926;30.404;2023-01-16T11:37:25;2.92;;;0.80;;
77736;SDS011;66903;59.926;30.404;2023-01-16T11:42:28;2.40;;;0.85;;
77736;SDS011;66903;59.926;30.404;2023-01-16T11:52:53;2.90;;;0.98;;
77736;SDS011;66903;59.926;30.404;2023-01-16T12:25:02;2.40;;;1.00;;
77736;SDS011;66903;59.926;30.404;2023-01-16T12:35:58;2.72;;;0.98;;
77736;SDS011;66903;59.926;30.404;2023-01-16T12:41:23;2.65;;;0.88;;
77736;SDS011;66903;59.926;30.404;2023-01-16T12:47:49;2.17;;;0.75;;
77736;SDS011;66903;59.926;30.404;2023-01-16T13:03:10;4.32;;;1.50;;
77736;SDS011;66903;59.926;30.404;2023-01-16T13:08:28;2.53;;;0.93;;
77736;SDS011;66903;59.926;30.404;2023-01-16T13:13:35;2.83;;;1.00;;
77736;SDS011;66903;59.926;30.404;2023-01-16T13:19:02;2.88;;;1.20;;
77736;SDS011;66903;59.926;30.404;2023-01-16T13:24:14;2.08;;;0.80;;
77736;SDS011;66903;59.926;30.404;2023-01-16T13:29:23;3.70;;;1.00;;
77736;SDS011;66903;59.926;30.404;2023-01-16T13:34:48;3.22;;;0.90;;
77736;SDS011;66903;59.926;30.404;2023-01-16T13:45:26;4.97;;;0.88;;
77736;SDS011;66903;59.926;30.404;2023-01-16T13:50:55;6.57;;;1.10;;
77736;SDS011;66903;59.926;30.404;2023-01-16T13:56:05;4.03;;;1.00;;
77736;SDS011;66903;59.926;30.404;2023-01-16T14:01:27;3.92;;;1.00;;
77736;SDS011;66903;59.926;30.404;2023-01-16T14:06:31;2.10;;;0.80;;
77736;SDS011;66903;59.926;30.404;2023-01-16T14:12:19;3.90;;;0.90;;
77736;SDS011;66903;59.926;30.404;2023-01-16T14:17:21;2.35;;;1.00;;
77736;SDS011;66903;59.926;30.404;2023-01-16T14:22:39;2.15;;;0.70;;
77736;SDS011;66903;59.926;30.404;2023-01-16T14:28:00;1.15;;;0.68;;
77736;SDS011;66903;59.926;30.404;2023-01-16T14:33:02;2.35;;;0.80;;
77736;SDS011;66903;59.926;30.404;2023-01-16T14:38:07;4.25;;;0.95;;
77736;SDS011;66903;59.926;30.404;2023-01-16T14:43:17;2.95;;;0.90;;
77736;SDS011;66903;59.926;30.404;2023-01-16T14:48:45;2.05;;;0.75;;
77736;SDS011;66903;59.926;30.404;2023-01-16T14:54:06;3.17;;;1.13;;
77736;SDS011;66903;59.926;30.404;2023-01-16T14:59:29;3.10;;;0.82;;
77736;SDS011;66903;59.926;30.404;2023-01-16T15:05:08;2.63;;;0.88;;
77736;SDS011;66903;59.926;30.404;2023-01-16T15:10:04;3.10;;;1.00;;
77736;SDS011;66903;59.926;30.404;2023-01-16T15:15:27;4.63;;;1.10;;
77736;SDS011;66903;59.926;30.404;2023-01-16T15:20:30;3.70;;;1.27;;
77736;SDS011;66903;59.926;30.404;2023-01-16T15:31:23;3.58;;;1.10;;
77736;SDS011;66903;59.926;30.404;2023-01-16T15:36:26;3.55;;;1.17;;
77736;SDS011;66903;59.926;30.404;2023-01-16T15:41:32;3.95;;;0.88;;
77736;SDS011;66903;59.926;30.404;2023-01-16T15:47:04;4.05;;;0.98;;
77736;SDS011;66903;59.926;30.404;2023-01-16T15:52:30;2.33;;;0.70;;
77736;SDS011;66903;59.926;30.404;2023-01-16T15:57:32;4.85;;;1.30;;
77736;SDS011;66903;59.926;30.404;2023-01-16T16:02:33;4.78;;;0.90;;
77736;SDS011;66903;59.926;30.404;2023-01-16T16:07:41;3.63;;;1.08;;
77736;SDS011;66903;59.926;30.404;2023-01-16T16:12:42;4.05;;;0.90;;
77736;SDS011;66903;59.926;30.404;2023-01-16T16:17:43;3.33;;;0.85;;
77736;SDS011;66903;59.926;30.404;2023-01-16T16:33:25;3.92;;;1.00;;
77736;SDS011;66903;59.926;30.404;2023-01-16T16:43:47;3.10;;;1.30;;
77736;SDS011;66903;59.926;30.404;2023-01-16T16:48:55;8.02;;;1.08;;
77736;SDS011;66903;59.926;30.404;2023-01-16T16:53:58;2.35;;;0.90;;
77736;SDS011;66903;59.926;30.404;2023-01-16T16:59:03;3.47;;;0.77;;
77736;SDS011;66903;59.926;30.404;2023-01-16T17:04:05;4.53;;;0.90;;
77736;SDS011;66903;59.926;30.404;2023-01-16T17:09:09;2.35;;;0.90;;
77736;SDS011;66903;59.926;30.404;2023-01-16T17:14:12;2.80;;;0.90;;
77736;SDS011;66903;59.926;30.404;2023-01-16T17:24:21;3.92;;;0.90;;
77736;SDS011;66903;59.926;30.404;2023-01-16T17:29:22;3.38;;;0.77;;
77736;SDS011;66903;59.926;30.404;2023-01-16T17:34:23;2.15;;;0.85;;
77736;SDS011;66903;59.926;30.404;2023-01-16T17:39:25;3.88;;;0.80;;
77736;SDS011;66903;59.926;30.404;2023-01-16T17:44:28;4.38;;;0.90;;
77736;SDS011;66903;59.926;30.404;2023-01-16T17:49:47;6.88;;;0.80;;
77736;SDS011;66903;59.926;30.404;2023-01-16T17:55:17;2.83;;;0.85;;
77736;SDS011;66903;59.926;30.404;2023-01-16T18:00:36;3.42;;;1.00;;
77736;SDS011;66903;59.926;30.404;2023-01-16T18:05:40;1.95;;;0.77;;
77736;SDS011;66903;59.926;30.404;2023-01-16T18:10:40;1.95;;;0.70;;
77736;SDS011;66903;59.926;30.404;2023-01-16T18:15:42;1.92;;;0.88;;
77736;SDS011;66903;59.926;30.404;2023-01-16T18:21:07;4.10;;;1.00;;
77736;SDS011;66903;59.926;30.404;2023-01-16T18:26:32;3.22;;;0.90;;
77736;SDS011;66903;59.926;30.404;2023-01-16T18:31:33;8.95;;;1.23;;
77736;SDS011;66903;59.926;30.404;2023-01-16T18:36:33;6.00;;;0.98;;
77736;SDS011;66903;59.926;30.404;2023-01-16T18:41:34;2.75;;;0.80;;
77736;SDS011;66903;59.926;30.404;2023-01-16T18:46:53;3.53;;;0.73;;
77736;SDS011;66903;59.926;30.404;2023-01-16T18:57:36;2.20;;;0.70;;
77736;SDS011;66903;59.926;30.404;2023-01-16T19:07:55;3.10;;;0.80;;
77736;SDS011;66903;59.926;30.404;2023-01-16T19:12:57;3.00;;;1.00;;
77736;SDS011;66903;59.926;30.404;2023-01-16T19:18:00;3.80;;;1.10;;
77736;SDS011;66903;59.926;30.404;2023-01-16T19:23:02;3.28;;;0.95;;
77736;SDS011;66903;59.926;30.404;2023-01-16T19:28:02;4.05;;;1.08;;
77736;SDS011;66903;59.926;30.404;2023-01-16T19:33:03;5.22;;;1.20;;
77736;SDS011;66903;59.926;30.404;2023-01-16T19:38:04;5.25;;;1.33;;
77736;SDS011;66903;59.926;30.404;2023-01-16T19:43:04;4.15;;;1.30;;
77736;SDS011;66903;59.926;30.404;2023-01-16T19:48:23;4.60;;;1.30;;
77736;SDS011;66903;59.926;30.404;2023-01-16T19:53:23;4.97;;;1.48;;
77736;SDS011;66903;59.926;30.404;2023-01-16T19:58:24;3.15;;;1.23;;
77736;SDS011;66903;59.926;30.404;2023-01-16T20:03:25;4.18;;;1.40;;
77736;SDS011;66903;59.926;30.404;2023-01-16T20:08:25;2.92;;;1.10;;
77736;SDS011;66903;59.926;30.404;2023-01-16T20:13:26;5.43;;;1.30;;
77736;SDS011;66903;59.926;30.404;2023-01-16T20:18:26;5.43;;;1.48;;
77736;SDS011;66903;59.926;30.404;2023-01-16T20:23:29;4.85;;;1.40;;
77736;SDS011;66903;59.926;30.404;2023-01-16T20:28:32;5.22;;;1.75;;
77736;SDS011;66903;59.926;30.404;2023-01-16T20:33:35;4.40;;;1.40;;
77736;SDS011;66903;59.926;30.404;2023-01-16T20:38:41;10.32;;;1.65;;
77736;SDS011;66903;59.926;30.404;2023-01-16T20:44:11;5.78;;;1.40;;
77736;SDS011;66903;59.926;30.404;2023-01-16T20:49:53;6.03;;;1.75;;
77736;SDS011;66903;59.926;30.404;2023-01-16T20:55:11;7.97;;;2.10;;
77736;SDS011;66903;59.926;30.404;2023-01-16T21:00:13;4.90;;;1.40;;
77736;SDS011;66903;59.926;30.404;2023-01-16T21:05:15;4.53;;;1.33;;
77736;SDS011;66903;59.926;30.404;2023-01-16T21:10:16;3.47;;;1.17;;
77736;SDS011;66903;59.926;30.404;2023-01-16T21:15:17;2.92;;;0.90;;
77736;SDS011;66903;59.926;30.404;2023-01-16T21:20:17;4.05;;;1.20;;
77736;SDS011;66903;59.926;30.404;2023-01-16T21:25:36;2.67;;;0.90;;
77736;SDS011;66903;59.926;30.404;2023-01-16T21:30:37;2.97;;;1.30;;
77736;SDS011;66903;59.926;30.404;2023-01-16T21:35:37;5.03;;;1.30;;
77736;SDS011;66903;59.926;30.404;2023-01-16T21:40:38;3.22;;;0.98;;
77736;SDS011;66903;59.926;30.404;2023-01-16T21:45:39;3.33;;;1.00;;
77736;SDS011;66903;59.926;30.404;2023-01-16T21:50:58;3.45;;;0.98;;
77736;SDS011;66903;59.926;30.404;2023-01-16T21:56:01;2.42;;;0.80;;
77736;SDS011;66903;59.926;30.404;2023-01-16T22:01:02;5.07;;;1.08;;
77736;SDS011;66903;59.926;30.404;2023-01-16T22:06:05;2.65;;;0.82;;
77736;SDS011;66903;59.926;30.404;2023-01-16T22:11:07;4.32;;;1.05;;
77736;SDS011;66903;59.926;30.404;2023-01-16T22:16:31;3.03;;;1.00;;
77736;SDS011;66903;59.926;30.404;2023-01-16T22:21:56;3.95;;;1.05;;
77736;SDS011;66903;59.926;30.404;2023-01-16T22:27:20;3.90;;;1.15;;
77736;SDS011;66903;59.926;30.404;2023-01-16T22:33:01;3.55;;;0.95;;
77736;SDS011;66903;59.926;30.404;2023-01-16T22:38:01;2.60;;;1.05;;
77736;SDS011;66903;59.926;30.404;2023-01-16T22:43:02;3.05;;;0.80;;
77736;SDS011;66903;59.926;30.404;2023-01-16T22:48:21;6.20;;;1.20;;
77736;SDS011;66903;59.926;30.404;2023-01-16T22:53:21;3.70;;;0.90;;
77736;SDS011;66903;59.926;30.404;2023-01-16T22:58:22;2.83;;;0.80;;
77736;SDS011;66903;59.926;30.404;2023-01-16T23:03:23;2.35;;;0.88;;
77736;SDS011;66903;59.926;30.404;2023-01-16T23:08:23;3.65;;;0.90;;
77736;SDS011;66903;59.926;30.404;2023-01-16T23:13:24;2.22;;;0.73;;
77736;SDS011;66903;59.926;30.404;2023-01-16T23:18:24;2.67;;;0.82;;
77736;SDS011;66903;59.926;30.404;2023-01-16T23:23:25;2.83;;;0.93;;
77736;SDS011;66903;59.926;30.404;2023-01-16T23:28:28;4.05;;;0.93;;
77736;SDS011;66903;59.926;30.404;2023-01-16T23:38:32;3.03;;;1.00;;
77736;SDS011;66903;59.926;30.404;2023-01-16T23:43:34;3.10;;;0.88;;
77736;SDS011;66903;59.926;30.404;2023-01-16T23:48:54;3.13;;;1.10;;
77736;SDS011;66903;59.926;30.404;2023-01-16T23:53:54;3.55;;;1.15;;
77736;SDS011;66903;59.926;30.404;2023-01-16T23:58:55;3.75;;;1.23;;
